createdAt,value
2023-04-24T00:00:24.998Z,10.24
2023-04-24T00:02:26.714Z,10.25
2023-04-24T00:04:28.729Z,10.27
2023-04-24T00:06:30.743Z,10.28
2023-04-24T00:08:32.387Z,10.29
2023-04-24T00:10:34.055Z,10.31
2023-04-24T00:12:35.797Z,10.32
2023-04-24T00:14:37.621Z,10.35
2023-04-24T00:16:40.662Z,10.38
2023-04-24T00:18:42.282Z,10.41
2023-04-24T00:20:43.925Z,10.45
2023-04-24T00:22:45.482Z,10.48
2023-04-24T00:24:47.223Z,10.53
2023-04-24T00:26:48.902Z,10.56
2023-04-24T00:28:50.810Z,10.60
2023-04-24T00:30:52.325Z,10.62
2023-04-24T00:32:55.309Z,10.66
2023-04-24T00:34:56.849Z,10.69
2023-04-24T00:36:58.442Z,10.72
2023-04-24T00:38:59.977Z,10.74
2023-04-24T00:41:01.660Z,10.77
2023-04-24T00:43:03.497Z,10.80
2023-04-24T00:45:06.499Z,10.82
2023-04-24T00:47:08.417Z,10.84
2023-04-24T00:49:12.766Z,10.87
2023-04-24T00:51:14.274Z,10.88
2023-04-24T00:53:16.188Z,10.91
2023-04-24T00:55:18.252Z,10.93
2023-04-24T00:57:20.244Z,10.94
2023-04-24T00:59:21.941Z,10.96
2023-04-24T01:01:23.716Z,10.99
2023-04-24T01:03:27.667Z,11.00
2023-04-24T01:05:30.929Z,11.00
2023-04-24T01:07:32.815Z,11.02
2023-04-24T01:09:34.413Z,11.01
2023-04-24T01:11:35.988Z,10.99
2023-04-24T01:13:37.608Z,10.97
2023-04-24T01:15:39.137Z,10.95
2023-04-24T01:17:40.784Z,10.94
2023-04-24T01:19:42.640Z,10.91
2023-04-24T01:21:48.527Z,10.90
2023-04-24T01:23:52.159Z,10.87
2023-04-24T01:25:53.845Z,10.85
2023-04-24T01:27:55.467Z,10.82
2023-04-24T01:29:57.379Z,10.80
2023-04-24T01:31:59.352Z,10.78
2023-04-24T01:34:01.626Z,10.75
2023-04-24T01:36:03.866Z,10.72
2023-04-24T01:38:05.727Z,10.69
2023-04-24T01:40:09.946Z,10.65
2023-04-24T01:42:13.019Z,10.64
2023-04-24T01:44:15.614Z,10.62
2023-04-24T01:46:17.553Z,10.61
2023-04-24T01:48:19.346Z,10.58
2023-04-24T01:50:21.099Z,10.56
2023-04-24T01:52:23.449Z,10.53
2023-04-24T01:54:25.034Z,10.54
2023-04-24T01:56:30.362Z,10.54
2023-04-24T01:58:32.809Z,10.53
2023-04-24T02:00:34.436Z,10.53
2023-04-24T02:02:36.289Z,10.54
2023-04-24T02:04:38.307Z,10.54
2023-04-24T02:06:39.896Z,10.55
2023-04-24T02:08:41.822Z,10.56
2023-04-24T02:10:43.356Z,10.56
2023-04-24T02:12:46.333Z,10.59
2023-04-24T02:14:47.936Z,10.61
2023-04-24T02:16:49.545Z,10.63
2023-04-24T02:18:51.231Z,10.64
2023-04-24T02:20:52.789Z,10.64
2023-04-24T02:22:54.458Z,10.66
2023-04-24T02:24:56.611Z,10.66
2023-04-24T02:26:58.249Z,10.68
2023-04-24T02:29:01.158Z,10.68
2023-04-24T02:31:02.702Z,10.70
2023-04-24T02:33:04.347Z,10.72
2023-04-24T02:35:07.143Z,10.73
2023-04-24T02:37:08.754Z,10.75
2023-04-24T02:39:10.304Z,10.78
2023-04-24T02:41:12.295Z,10.78
2023-04-24T02:43:14.032Z,10.80
2023-04-24T02:45:17.164Z,10.82
2023-04-24T02:47:18.756Z,10.83
2023-04-24T02:49:20.461Z,10.83
2023-04-24T02:51:22.032Z,10.84
2023-04-24T02:53:23.613Z,10.84
2023-04-24T02:55:25.219Z,10.84
2023-04-24T02:57:27.012Z,10.84
2023-04-24T02:59:28.667Z,10.84
2023-04-24T03:01:31.633Z,10.84
2023-04-24T03:03:33.382Z,10.85
2023-04-24T03:05:35.162Z,10.85
2023-04-24T03:07:37.220Z,10.86
2023-04-24T03:09:38.703Z,10.84
2023-04-24T03:11:40.632Z,10.84
2023-04-24T03:13:42.157Z,10.83
2023-04-24T03:15:44.372Z,10.83
2023-04-24T03:17:47.670Z,10.82
2023-04-24T03:19:52.245Z,10.83
2023-04-24T03:21:53.887Z,10.83
2023-04-24T03:23:55.572Z,10.81
2023-04-24T03:25:57.237Z,10.81
2023-04-24T03:27:58.864Z,10.80
2023-04-24T03:30:00.445Z,10.79
2023-04-24T03:32:02.189Z,10.78
2023-04-24T03:34:05.231Z,10.76
2023-04-24T03:36:06.995Z,10.75
2023-04-24T03:38:08.573Z,10.75
2023-04-24T03:40:10.739Z,10.73
2023-04-24T03:42:12.334Z,10.73
2023-04-24T03:44:14.218Z,10.71
2023-04-24T03:46:15.977Z,10.71
2023-04-24T03:48:17.820Z,10.70
2023-04-24T03:50:20.806Z,10.68
2023-04-24T03:52:22.387Z,10.68
2023-04-24T03:54:24.018Z,10.68
2023-04-24T03:56:28.303Z,10.67
2023-04-24T03:58:29.923Z,10.66
2023-04-24T04:00:31.508Z,10.66
2023-04-24T04:02:33.295Z,10.65
2023-04-24T04:04:35.052Z,10.65
2023-04-24T04:06:38.865Z,10.67
2023-04-24T04:08:40.396Z,10.68
2023-04-24T04:10:41.976Z,10.67
2023-04-24T04:12:43.749Z,10.69
2023-04-24T04:14:45.238Z,10.68
2023-04-24T04:16:46.885Z,10.68
2023-04-24T04:18:48.578Z,10.71
2023-04-24T04:20:50.515Z,10.71
2023-04-24T04:22:53.467Z,10.73
2023-04-24T04:24:55.098Z,10.75
2023-04-24T04:26:56.607Z,10.78
2023-04-24T04:28:58.116Z,10.81
2023-04-24T04:30:59.781Z,10.84
2023-04-24T04:33:01.450Z,10.87
2023-04-24T04:35:03.287Z,10.89
2023-04-24T04:37:05.020Z,10.92
2023-04-24T04:39:08.458Z,10.96
2023-04-24T04:41:09.991Z,11.00
2023-04-24T04:43:11.620Z,11.04
2023-04-24T04:45:13.261Z,11.09
2023-04-24T04:47:14.920Z,11.13
2023-04-24T04:49:16.591Z,11.19
2023-04-24T04:51:18.213Z,11.24
2023-04-24T04:53:19.761Z,11.29
2023-04-24T04:55:22.699Z,11.33
2023-04-24T04:57:24.212Z,11.38
2023-04-24T04:59:25.859Z,11.44
2023-04-24T05:01:27.582Z,11.49
2023-04-24T05:03:29.280Z,11.53
2023-04-24T05:05:31.127Z,11.57
2023-04-24T05:07:32.728Z,11.61
2023-04-24T05:09:34.517Z,11.64
2023-04-24T05:11:37.633Z,11.65
2023-04-24T05:13:40.548Z,11.69
2023-04-24T05:15:42.858Z,11.71
2023-04-24T05:17:44.429Z,11.74
2023-04-24T05:19:46.371Z,11.77
2023-04-24T05:21:48.121Z,11.79
2023-04-24T05:23:49.766Z,11.81
2023-04-24T05:25:51.636Z,11.82
2023-04-24T05:27:54.533Z,11.83
2023-04-24T05:29:56.144Z,11.85
2023-04-24T05:31:57.827Z,11.87
2023-04-24T05:33:59.381Z,11.89
2023-04-24T05:36:00.944Z,11.91
2023-04-24T05:38:02.558Z,11.92
2023-04-24T05:40:04.843Z,11.94
2023-04-24T05:42:06.389Z,11.95
2023-04-24T05:44:09.371Z,11.97
2023-04-24T05:46:12.464Z,11.99
2023-04-24T05:48:14.088Z,12.01
2023-04-24T05:50:15.698Z,12.02
2023-04-24T05:52:17.307Z,12.06
2023-04-24T05:54:18.893Z,12.07
2023-04-24T05:56:20.635Z,12.09
2023-04-24T05:58:22.211Z,12.11
2023-04-24T06:00:26.064Z,12.12
2023-04-24T06:02:27.907Z,12.15
2023-04-24T06:04:29.721Z,12.16
2023-04-24T06:06:31.708Z,12.18
2023-04-24T06:08:33.679Z,12.21
2023-04-24T06:10:35.279Z,12.22
2023-04-24T06:12:36.844Z,12.26
2023-04-24T06:14:38.408Z,12.27
2023-04-24T06:16:43.629Z,12.31
2023-04-24T06:18:45.417Z,12.32
2023-04-24T06:20:47.458Z,12.33
2023-04-24T06:22:49.078Z,12.34
2023-04-24T06:24:50.680Z,12.35
2023-04-24T06:26:52.259Z,12.36
2023-04-24T06:28:54.188Z,12.38
2023-04-24T06:30:55.721Z,12.39
2023-04-24T06:33:03.134Z,12.41
2023-04-24T06:35:11.103Z,12.43
2023-04-24T06:37:12.707Z,12.44
2023-04-24T06:39:14.316Z,12.45
2023-04-24T06:41:15.850Z,12.47
2023-04-24T06:43:17.368Z,12.48
2023-04-24T06:45:19.276Z,12.49
2023-04-24T06:47:20.965Z,12.50
2023-04-24T06:49:23.848Z,12.51
2023-04-24T06:51:26.771Z,12.54
2023-04-24T06:53:28.322Z,12.53
2023-04-24T06:55:30.382Z,12.57
2023-04-24T06:57:32.361Z,12.57
2023-04-24T06:59:33.929Z,12.61
2023-04-24T07:01:35.455Z,12.62
2023-04-24T07:03:37.409Z,12.66
2023-04-24T07:05:40.798Z,12.68
2023-04-24T07:07:42.391Z,12.73
2023-04-24T07:09:44.331Z,12.81
2023-04-24T07:11:46.230Z,12.87
2023-04-24T07:13:47.763Z,12.96
2023-04-24T07:15:49.995Z,13.03
2023-04-24T07:17:51.716Z,13.12
2023-04-24T07:19:53.268Z,13.22
2023-04-24T07:21:56.252Z,13.32
2023-04-24T07:23:57.830Z,13.36
2023-04-24T07:25:59.522Z,13.42
2023-04-24T07:28:01.175Z,13.52
2023-04-24T07:30:02.861Z,13.60
2023-04-24T07:32:04.962Z,13.70
2023-04-24T07:34:06.648Z,13.77
2023-04-24T07:36:08.427Z,13.86
2023-04-24T07:38:11.310Z,13.97
2023-04-24T07:40:13.164Z,14.08
2023-04-24T07:42:14.820Z,14.21
2023-04-24T07:44:16.397Z,14.39
2023-04-24T07:46:18.133Z,14.55
2023-04-24T07:48:19.772Z,14.63
2023-04-24T07:50:21.754Z,14.77
2023-04-24T07:52:23.399Z,14.94
2023-04-24T07:54:26.690Z,15.14
2023-04-24T07:56:28.325Z,15.23
2023-04-24T07:58:30.065Z,15.38
2023-04-24T08:00:31.838Z,15.51
2023-04-24T08:02:33.689Z,15.59
2023-04-24T08:04:35.589Z,15.69
2023-04-24T08:06:37.185Z,15.75
2023-04-24T08:08:38.754Z,15.84
2023-04-24T08:10:41.758Z,15.90
2023-04-24T08:12:43.286Z,16.03
2023-04-24T08:14:45.065Z,16.04
2023-04-24T08:16:46.627Z,16.10
2023-04-24T08:18:48.285Z,16.15
2023-04-24T08:20:49.901Z,16.21
2023-04-24T08:22:51.424Z,16.24
2023-04-24T08:24:52.965Z,16.27
2023-04-24T08:26:56.188Z,16.32
2023-04-24T08:28:57.920Z,16.35
2023-04-24T08:30:59.849Z,16.37
2023-04-24T08:33:01.713Z,16.39
2023-04-24T08:35:03.608Z,16.40
2023-04-24T08:37:05.257Z,16.42
2023-04-24T08:39:06.911Z,16.45
2023-04-24T08:41:09.729Z,16.49
2023-04-24T08:43:13.471Z,16.52
2023-04-24T08:45:15.497Z,16.58
2023-04-24T08:47:17.475Z,16.62
2023-04-24T08:49:19.897Z,16.67
2023-04-24T08:51:21.974Z,16.68
2023-04-24T08:53:25.810Z,16.73
2023-04-24T08:55:27.525Z,16.77
2023-04-24T08:57:29.696Z,16.80
2023-04-24T08:59:33.443Z,16.84
2023-04-24T09:01:38.120Z,16.93
2023-04-24T09:03:41.088Z,17.02
2023-04-24T09:05:44.691Z,17.13
2023-04-24T09:07:50.381Z,17.23
2023-04-24T09:09:53.270Z,17.29
2023-04-24T09:11:54.824Z,17.42
2023-04-24T09:13:57.578Z,17.57
2023-04-24T09:16:00.766Z,17.70
2023-04-24T09:18:02.473Z,17.83
2023-04-24T09:20:04.932Z,17.95
2023-04-24T09:22:07.090Z,18.11
2023-04-24T09:24:16.149Z,18.23
2023-04-24T09:26:17.895Z,18.32
2023-04-24T09:28:19.666Z,18.35
2023-04-24T09:30:22.782Z,18.40
2023-04-24T09:32:26.523Z,18.45
2023-04-24T09:34:28.587Z,18.49
2023-04-24T09:36:31.722Z,18.53
2023-04-24T09:38:35.074Z,18.57
2023-04-24T09:40:36.781Z,18.63
2023-04-24T09:42:38.672Z,18.65
2023-04-24T09:44:40.272Z,18.67
2023-04-24T09:46:43.107Z,18.69
2023-04-24T09:48:46.550Z,18.72
2023-04-24T09:50:49.117Z,18.75
2023-04-24T09:52:58.117Z,18.79
2023-04-24T09:54:59.713Z,18.80
2023-04-24T09:57:01.292Z,18.82
2023-04-24T09:59:06.026Z,18.89
2023-04-24T10:01:07.700Z,18.96
2023-04-24T10:03:09.527Z,19.00
2023-04-24T10:05:13.171Z,19.04
2023-04-24T10:07:21.925Z,19.04
2023-04-24T10:14:19.527Z,19.15
2023-04-24T10:19:39.963Z,19.28
2023-04-24T10:21:42.159Z,19.35
2023-04-24T10:23:44.118Z,19.35
2023-04-24T10:25:46.274Z,19.41
2023-04-24T10:27:51.981Z,19.54
2023-04-24T10:29:54.528Z,19.59
2023-04-24T10:31:56.678Z,19.68
2023-04-24T10:34:00.919Z,19.74
2023-04-24T10:36:03.154Z,19.80
2023-04-24T10:38:10.343Z,19.87
2023-04-24T10:40:13.361Z,19.93
2023-04-24T10:42:15.718Z,19.99
2023-04-24T10:44:17.445Z,20.01
2023-04-24T10:46:21.380Z,20.08
2023-04-24T10:48:27.835Z,20.25
2023-04-24T10:50:42.531Z,20.33
2023-04-24T10:52:47.697Z,20.46
2023-04-24T10:54:50.605Z,20.52
2023-04-24T10:56:52.873Z,20.56
2023-04-24T10:58:54.467Z,20.57
2023-04-24T11:00:57.666Z,20.58
2023-04-24T11:02:59.447Z,20.56
2023-04-24T11:05:04.449Z,20.54
2023-04-24T11:07:06.534Z,20.51
2023-04-24T11:09:09.743Z,20.49
2023-04-24T11:11:14.205Z,20.47
2023-04-24T11:13:16.791Z,20.43
2023-04-24T11:15:18.648Z,20.47
2023-04-24T11:17:30.261Z,20.59
2023-04-24T11:19:31.872Z,20.70
2023-04-24T11:21:40.630Z,20.87
2023-04-24T11:23:42.251Z,20.91
2023-04-24T11:25:43.917Z,21.00
2023-04-24T11:27:46.819Z,21.07
2023-04-24T11:29:49.648Z,21.18
2023-04-24T11:31:51.386Z,21.24
2023-04-24T11:33:53.880Z,21.30
2023-04-24T11:35:55.656Z,21.33
2023-04-24T11:40:02.824Z,21.37
2023-04-24T11:42:05.139Z,21.40
2023-04-24T11:44:10.650Z,21.41
2023-04-24T11:46:12.278Z,21.42
2023-04-24T11:48:22.582Z,21.43
2023-04-24T11:50:26.057Z,21.42
2023-04-24T11:52:28.101Z,21.41
2023-04-24T11:54:29.980Z,21.48
2023-04-24T11:56:31.568Z,21.51
2023-04-24T11:58:35.940Z,21.52
2023-04-24T12:00:38.950Z,21.54
2023-04-24T12:02:40.833Z,21.59
2023-04-24T12:04:43.049Z,21.67
2023-04-24T12:07:00.373Z,21.84
2023-04-24T12:09:11.499Z,21.88
2023-04-24T12:11:19.145Z,22.00
2023-04-24T12:13:20.888Z,22.17
2023-04-24T12:15:24.066Z,22.31
2023-04-24T12:17:29.575Z,22.50
2023-04-24T12:19:31.361Z,22.66
2023-04-24T12:21:33.094Z,22.82
2023-04-24T12:23:35.680Z,22.96
2023-04-24T12:25:37.414Z,23.12
2023-04-24T12:27:39.131Z,23.16
2023-04-24T12:29:52.563Z,23.33
2023-04-24T12:31:55.114Z,23.39
2023-04-24T12:33:58.105Z,23.48
2023-04-24T12:35:59.821Z,23.53
2023-04-24T12:38:06.924Z,23.61
2023-04-24T12:40:11.106Z,23.64
2023-04-24T12:42:12.756Z,23.64
2023-04-24T12:44:14.387Z,23.66
2023-04-24T12:46:17.632Z,23.69
2023-04-24T12:48:19.917Z,23.70
2023-04-24T12:50:22.980Z,23.70
2023-04-24T12:52:25.210Z,23.73
2023-04-24T12:54:26.990Z,23.73
2023-04-24T12:56:28.914Z,23.76
2023-04-24T12:58:30.465Z,23.74
2023-04-24T13:00:32.625Z,23.74
2023-04-24T13:02:35.343Z,23.72
2023-04-24T13:04:37.073Z,23.72
2023-04-24T13:06:40.037Z,23.69
2023-04-24T13:08:41.876Z,23.65
2023-04-24T13:10:43.460Z,23.61
2023-04-24T13:12:45.088Z,23.56
2023-04-24T13:14:47.139Z,23.53
2023-04-24T13:16:49.201Z,23.51
2023-04-24T13:18:50.781Z,23.48
2023-04-24T13:20:52.583Z,23.44
2023-04-24T13:22:55.540Z,23.37
2023-04-24T13:24:57.381Z,23.29
2023-04-24T13:26:59.346Z,23.22
2023-04-24T13:29:00.996Z,23.10
2023-04-24T13:31:02.592Z,23.00
2023-04-24T13:33:04.493Z,22.88
2023-04-24T13:35:06.747Z,22.70
2023-04-24T13:37:08.373Z,22.56
2023-04-24T13:39:11.344Z,22.43
2023-04-24T13:41:12.966Z,22.32
2023-04-24T13:43:14.610Z,22.22
2023-04-24T13:45:24.600Z,22.14
2023-04-24T13:47:27.271Z,22.08
2023-04-24T13:49:29.244Z,21.98
2023-04-24T13:51:31.000Z,21.91
2023-04-24T13:53:32.655Z,21.78
2023-04-24T13:55:35.569Z,21.67
2023-04-24T13:57:37.154Z,21.52
2023-04-24T13:59:39.263Z,21.40
2023-04-24T14:01:40.850Z,21.28
2023-04-24T14:03:44.429Z,21.15
2023-04-24T14:05:51.277Z,21.02
2023-04-24T14:07:52.914Z,20.91
2023-04-24T14:09:54.461Z,20.79
2023-04-24T14:11:57.488Z,20.66
2023-04-24T14:13:59.060Z,20.57
2023-04-24T14:16:00.670Z,20.42
2023-04-24T14:18:04.895Z,20.31
2023-04-24T14:20:08.706Z,20.24
2023-04-24T14:22:10.899Z,20.14
2023-04-24T14:24:12.667Z,20.05
2023-04-24T14:26:14.249Z,19.99
2023-04-24T14:28:17.219Z,19.89
2023-04-24T14:30:18.870Z,19.82
2023-04-24T14:32:20.468Z,19.74
2023-04-24T14:34:22.085Z,19.67
2023-04-24T14:36:25.104Z,19.61
2023-04-24T14:38:26.801Z,19.52
2023-04-24T14:40:56.293Z,19.47
2023-04-24T14:42:50.098Z,19.41
2023-04-24T14:44:53.176Z,19.36
2023-04-24T14:46:54.889Z,19.34
2023-04-24T14:48:56.980Z,19.31
2023-04-24T14:50:59.158Z,19.29
2023-04-24T14:53:03.886Z,19.30
2023-04-24T14:55:06.384Z,19.27
2023-04-24T14:57:11.187Z,19.25
2023-04-24T14:59:16.306Z,19.22
2023-04-24T15:01:22.775Z,19.20
2023-04-24T15:03:27.555Z,19.17
2023-04-24T15:05:29.883Z,19.12
2023-04-24T15:07:31.701Z,19.07
2023-04-24T15:09:33.392Z,19.06
2023-04-24T15:11:35.237Z,19.03
2023-04-24T15:13:36.902Z,19.00
2023-04-24T15:15:38.564Z,18.98
2023-04-24T15:17:41.560Z,18.95
2023-04-24T15:19:43.185Z,18.92
2023-04-24T15:21:44.829Z,18.90
2023-04-24T15:23:46.818Z,18.86
2023-04-24T15:25:48.897Z,18.83
2023-04-24T15:27:50.517Z,18.78
2023-04-24T15:29:52.215Z,18.72
2023-04-24T15:31:53.827Z,18.70
2023-04-24T15:33:56.840Z,18.66
2023-04-24T15:35:58.542Z,18.64
2023-04-24T15:38:00.126Z,18.62
2023-04-24T15:40:01.975Z,18.61
2023-04-24T15:42:03.866Z,18.60
2023-04-24T15:44:05.458Z,18.61
2023-04-24T15:46:07.507Z,18.60
2023-04-24T15:48:09.259Z,18.62
2023-04-24T15:50:14.443Z,18.66
2023-04-24T15:52:16.337Z,18.70
2023-04-24T15:54:18.079Z,18.76
2023-04-24T15:56:19.850Z,18.78
2023-04-24T15:58:21.630Z,18.79
2023-04-24T16:00:23.498Z,18.82
2023-04-24T16:02:25.343Z,18.86
2023-04-24T16:04:27.400Z,18.89
2023-04-24T16:06:30.390Z,18.93
2023-04-24T16:08:32.159Z,18.97
2023-04-24T16:10:33.839Z,18.99
2023-04-24T16:12:35.612Z,19.02
2023-04-24T16:14:37.261Z,19.08
2023-04-24T16:16:38.774Z,19.13
2023-04-24T16:18:40.319Z,19.17
2023-04-24T16:20:41.906Z,19.24
2023-04-24T16:22:44.783Z,19.29
2023-04-24T16:24:47.053Z,19.30
2023-04-24T16:26:52.579Z,19.31
2023-04-24T16:28:54.258Z,19.33
2023-04-24T16:30:56.469Z,19.33
2023-04-24T16:32:58.093Z,19.34
2023-04-24T16:34:59.854Z,19.31
2023-04-24T16:37:01.448Z,19.33
2023-04-24T16:39:04.885Z,19.34
2023-04-24T16:41:06.419Z,19.34
2023-04-24T16:43:08.451Z,19.33
2023-04-24T16:45:10.718Z,19.33
2023-04-24T16:47:12.528Z,19.32
2023-04-24T16:49:14.670Z,19.34
2023-04-24T16:51:16.508Z,19.33
2023-04-24T16:53:18.093Z,19.32
2023-04-24T16:55:21.022Z,19.30
2023-04-24T16:57:22.781Z,19.30
2023-04-24T16:59:24.476Z,19.28
2023-04-24T17:01:26.557Z,19.23
2023-04-24T17:03:28.277Z,19.19
2023-04-24T17:05:29.991Z,19.14
2023-04-24T17:07:31.768Z,19.09
2023-04-24T17:09:33.421Z,19.05
2023-04-24T17:11:36.283Z,18.98
2023-04-24T17:13:38.052Z,18.92
2023-04-24T17:15:39.902Z,18.87
2023-04-24T17:17:41.706Z,18.81
2023-04-24T17:19:43.398Z,18.75
2023-04-24T17:21:44.929Z,18.70
2023-04-24T17:23:46.541Z,18.65
2023-04-24T17:25:48.878Z,18.58
2023-04-24T17:27:51.779Z,18.53
2023-04-24T17:29:53.358Z,18.46
2023-04-24T17:31:54.975Z,18.40
2023-04-24T17:33:56.603Z,18.35
2023-04-24T17:35:58.839Z,18.28
2023-04-24T17:38:00.591Z,18.25
2023-04-24T17:40:02.500Z,18.19
2023-04-24T17:42:05.576Z,18.17
2023-04-24T17:44:08.704Z,18.16
2023-04-24T17:46:10.781Z,18.11
2023-04-24T17:48:12.866Z,18.04
2023-04-24T17:50:14.625Z,17.98
2023-04-24T17:52:16.492Z,17.92
2023-04-24T17:54:18.521Z,17.84
2023-04-24T17:56:20.533Z,17.77
2023-04-24T17:58:22.171Z,17.72
2023-04-24T18:00:25.144Z,17.66
2023-04-24T18:02:26.904Z,17.59
2023-04-24T18:04:28.606Z,17.50
2023-04-24T18:06:30.339Z,17.45
2023-04-24T18:08:32.378Z,17.39
2023-04-24T18:10:34.839Z,17.34
2023-04-24T18:12:36.677Z,17.28
2023-04-24T18:14:38.565Z,17.21
2023-04-24T18:16:41.611Z,17.15
2023-04-24T18:18:43.471Z,17.08
2023-04-24T18:20:46.093Z,17.00
2023-04-24T18:22:48.217Z,16.94
2023-04-24T18:24:49.789Z,16.87
2023-04-24T18:26:51.342Z,16.78
2023-04-24T18:28:53.090Z,16.72
2023-04-24T18:30:54.741Z,16.66
2023-04-24T18:32:58.416Z,16.62
2023-04-24T18:35:00.190Z,16.54
2023-04-24T18:37:01.723Z,16.48
2023-04-24T18:39:03.313Z,16.44
2023-04-24T18:41:05.078Z,16.37
2023-04-24T18:43:07.074Z,16.32
2023-04-24T18:45:10.926Z,16.26
2023-04-24T18:47:13.961Z,16.20
2023-04-24T18:49:17.262Z,16.15
2023-04-24T18:51:18.907Z,16.08
2023-04-24T18:53:20.562Z,16.02
2023-04-24T18:55:22.456Z,15.97
2023-04-24T18:57:24.165Z,15.90
2023-04-24T18:59:25.909Z,15.86
2023-04-24T19:01:27.678Z,15.81
2023-04-24T19:03:29.399Z,15.74
2023-04-24T19:05:32.869Z,15.68
2023-04-24T19:07:34.392Z,15.60
2023-04-24T19:09:35.954Z,15.54
2023-04-24T19:11:38.078Z,15.48
2023-04-24T19:13:39.565Z,15.42
2023-04-24T19:15:41.118Z,15.35
2023-04-24T19:17:42.777Z,15.32
2023-04-24T19:19:44.501Z,15.23
2023-04-24T19:21:47.493Z,15.18
2023-04-24T19:23:49.311Z,15.10
2023-04-24T19:25:51.001Z,15.03
2023-04-24T19:27:52.626Z,14.98
2023-04-24T19:29:54.304Z,14.92
2023-04-24T19:31:55.884Z,14.87
2023-04-24T19:33:57.398Z,14.81
2023-04-24T19:36:00.122Z,14.75
2023-04-24T19:38:03.128Z,14.72
2023-04-24T19:40:06.080Z,14.67
2023-04-24T19:42:07.837Z,14.62
2023-04-24T19:44:09.519Z,14.58
2023-04-24T19:46:11.719Z,14.54
2023-04-24T19:48:13.606Z,14.46
2023-04-24T19:50:15.392Z,14.41
2023-04-24T19:52:17.021Z,14.35
2023-04-24T19:54:19.946Z,14.25
2023-04-24T19:56:21.501Z,14.19
2023-04-24T19:58:23.330Z,14.11
2023-04-24T20:00:24.931Z,14.06
2023-04-24T20:02:26.874Z,13.98
2023-04-24T20:04:28.776Z,13.92
2023-04-24T20:06:30.574Z,13.85
2023-04-24T20:08:32.230Z,13.76
2023-04-24T20:10:36.112Z,13.71
2023-04-24T20:12:38.163Z,13.64
2023-04-24T20:14:39.856Z,13.57
2023-04-24T20:16:41.534Z,13.50
2023-04-24T20:18:43.122Z,13.43
2023-04-24T20:20:44.729Z,13.37
2023-04-24T20:22:46.311Z,13.30
2023-04-24T20:24:48.093Z,13.25
2023-04-24T20:26:50.943Z,13.18
2023-04-24T20:28:52.643Z,13.12
2023-04-24T20:30:54.779Z,13.08
2023-04-24T20:32:56.536Z,13.04
2023-04-24T20:34:58.489Z,12.97
2023-04-24T20:37:00.024Z,12.95
2023-04-24T20:39:01.580Z,12.92
2023-04-24T20:41:03.427Z,12.90
2023-04-24T20:43:06.780Z,12.86
2023-04-24T20:45:09.351Z,12.85
2023-04-24T20:47:11.630Z,12.82
2023-04-24T20:49:13.211Z,12.80
2023-04-24T20:51:15.106Z,12.79
2023-04-24T20:53:16.749Z,12.76
2023-04-24T20:55:18.366Z,12.71
2023-04-24T20:57:20.026Z,12.67
2023-04-24T20:59:23.023Z,12.65
2023-04-24T21:01:24.773Z,12.61
2023-04-24T21:03:26.514Z,12.57
2023-04-24T21:05:28.075Z,12.53
2023-04-24T21:07:29.646Z,12.48
2023-04-24T21:09:31.371Z,12.43
2023-04-24T21:11:32.884Z,12.39
2023-04-24T21:13:34.397Z,12.35
2023-04-24T21:15:37.546Z,12.28
2023-04-24T21:17:39.171Z,12.23
2023-04-24T21:19:40.884Z,12.18
2023-04-24T21:21:42.418Z,12.14
2023-04-24T21:23:44.365Z,12.07
2023-04-24T21:25:46.043Z,12.03
2023-04-24T21:27:47.771Z,11.98
2023-04-24T21:29:49.685Z,11.92
2023-04-24T21:31:52.826Z,11.85
2023-04-24T21:33:54.411Z,11.85
2023-04-24T21:35:56.002Z,11.82
2023-04-24T21:37:57.565Z,11.79
2023-04-24T21:39:59.202Z,11.75
2023-04-24T21:42:00.756Z,11.70
2023-04-24T21:44:02.395Z,11.68
2023-04-24T21:46:04.285Z,11.63
2023-04-24T21:48:07.589Z,11.63
2023-04-24T21:50:10.419Z,11.58
2023-04-24T21:52:11.939Z,11.54
2023-04-24T21:54:13.617Z,11.51
2023-04-24T21:56:15.403Z,11.50
2023-04-24T21:58:17.777Z,11.45
2023-04-24T22:00:19.464Z,11.42
2023-04-24T22:02:21.186Z,11.40
2023-04-24T22:04:24.692Z,11.36
2023-04-24T22:06:26.448Z,11.32
2023-04-24T22:08:28.049Z,11.31
2023-04-24T22:10:29.756Z,11.25
2023-04-24T22:12:31.356Z,11.24
2023-04-24T22:14:33.023Z,11.21
2023-04-24T22:16:34.674Z,11.18
2023-04-24T22:18:46.666Z,11.15
2023-04-24T22:20:50.584Z,11.13
2023-04-24T22:22:52.173Z,11.08
2023-04-24T22:24:53.717Z,11.07
2023-04-24T22:26:55.507Z,11.02
2023-04-24T22:28:57.032Z,10.99
2023-04-24T22:30:58.659Z,10.93
2023-04-24T22:33:00.413Z,10.91
2023-04-24T22:35:02.153Z,10.88
2023-04-24T22:37:05.255Z,10.84
2023-04-24T22:39:06.961Z,10.82
2023-04-24T22:41:08.535Z,10.77
2023-04-24T22:43:10.164Z,10.75
2023-04-24T22:45:11.906Z,10.72
2023-04-24T22:47:13.488Z,10.70
2023-04-24T22:49:15.129Z,10.67
2023-04-24T22:51:16.793Z,10.63
2023-04-24T22:53:20.161Z,10.61
2023-04-24T22:55:21.962Z,10.58
2023-04-24T22:57:23.605Z,10.55
2023-04-24T22:59:25.145Z,10.53
2023-04-24T23:01:26.868Z,10.50
2023-04-24T23:03:28.982Z,10.47
2023-04-24T23:05:30.844Z,10.45
2023-04-24T23:07:32.446Z,10.40
2023-04-24T23:09:35.321Z,10.38
2023-04-24T23:11:36.852Z,10.36
2023-04-24T23:13:38.659Z,10.33
2023-04-24T23:15:40.560Z,10.27
2023-04-24T23:17:42.272Z,10.25
2023-04-24T23:19:43.884Z,10.24
2023-04-24T23:21:45.486Z,10.21
2023-04-24T23:23:47.132Z,10.19
2023-04-24T23:25:50.255Z,10.17
2023-04-24T23:27:51.825Z,10.15
2023-04-24T23:29:53.462Z,10.14
2023-04-24T23:31:55.009Z,10.11
2023-04-24T23:33:56.602Z,10.10
2023-04-24T23:35:58.426Z,10.08
2023-04-24T23:37:59.979Z,10.06
2023-04-24T23:40:01.867Z,10.05
2023-04-24T23:42:04.935Z,10.05
2023-04-24T23:44:06.551Z,10.04
2023-04-24T23:46:08.086Z,10.03
2023-04-24T23:48:09.603Z,10.03
2023-04-24T23:50:11.350Z,10.03
2023-04-24T23:52:12.947Z,10.03
2023-04-24T23:54:14.643Z,10.04
2023-04-24T23:56:16.387Z,10.05
2023-04-24T23:58:19.337Z,10.03
